createdAt,value
2019-01-20T00:02:44.865Z,42.33
2019-01-20T00:05:34.954Z,42.37
2019-01-20T00:08:25.294Z,43.93
2019-01-20T00:11:16.792Z,40.03
2019-01-20T00:14:07.649Z,39.87
2019-01-20T00:16:58.348Z,50.30
2019-01-20T00:19:48.642Z,41.57
2019-01-20T00:22:38.949Z,47.93
2019-01-20T00:25:29.299Z,42.23
2019-01-20T00:28:19.814Z,42.17
2019-01-20T00:31:10.654Z,41.40
2019-01-20T00:34:00.926Z,40.40
2019-01-20T00:36:51.233Z,43.93
2019-01-20T00:39:41.574Z,43.63
2019-01-20T00:42:32.002Z,47.03
2019-01-20T00:45:22.037Z,44.00
2019-01-20T00:48:12.249Z,48.17
2019-01-20T00:51:02.589Z,47.27
2019-01-20T00:53:53.138Z,52.30
2019-01-20T00:56:43.444Z,53.07
2019-01-20T00:59:34.312Z,48.23
2019-01-20T01:02:24.844Z,52.37
2019-01-20T01:05:16.181Z,48.53
2019-01-20T01:08:06.463Z,57.43
2019-01-20T01:10:56.969Z,54.07
2019-01-20T01:13:47.191Z,51.63
2019-01-20T01:16:37.494Z,51.93
2019-01-20T01:19:27.642Z,50.63
2019-01-20T01:22:17.918Z,50.90
2019-01-20T01:25:10.108Z,54.83
2019-01-20T01:28:00.451Z,51.47
2019-01-20T01:30:50.802Z,51.93
2019-01-20T01:33:41.257Z,45.53
2019-01-20T01:36:31.634Z,47.60
2019-01-20T01:39:21.854Z,53.83
2019-01-20T01:42:11.926Z,52.27
2019-01-20T01:45:02.242Z,52.07
2019-01-20T01:47:52.206Z,51.47
2019-01-20T01:50:42.190Z,49.30
2019-01-20T01:53:32.170Z,49.83
2019-01-20T01:56:22.462Z,49.37
2019-01-20T01:59:12.685Z,47.07
2019-01-20T02:02:02.748Z,54.50
2019-01-20T02:04:52.695Z,50.73
2019-01-20T02:07:42.903Z,54.07
2019-01-20T02:10:33.147Z,54.83
2019-01-20T02:13:23.966Z,47.57
2019-01-20T02:16:14.158Z,47.73
2019-01-20T02:19:04.171Z,48.07
2019-01-20T02:21:54.101Z,50.63
2019-01-20T02:24:45.247Z,46.13
2019-01-20T02:27:35.530Z,50.60
2019-01-20T02:30:28.915Z,48.30
2019-01-20T02:33:19.271Z,46.77
2019-01-20T02:36:09.826Z,51.93
2019-01-20T02:39:00.120Z,47.10
2019-01-20T02:41:55.006Z,50.47
2019-01-20T02:44:41.805Z,49.37
2019-01-20T02:47:31.789Z,48.67
2019-01-20T02:50:21.753Z,46.23
2019-01-20T02:53:11.888Z,48.07
2019-01-20T02:56:02.145Z,43.93
2019-01-20T02:58:52.479Z,47.13
2019-01-20T03:01:42.898Z,45.60
2019-01-20T03:04:33.168Z,43.00
2019-01-20T03:07:23.245Z,41.10
2019-01-20T03:10:13.526Z,54.40
2019-01-20T03:13:03.805Z,45.43
2019-01-20T03:15:54.143Z,45.30
2019-01-20T03:18:44.664Z,44.27
2019-01-20T03:21:35.582Z,49.73
2019-01-20T03:24:25.879Z,42.47
2019-01-20T03:27:16.243Z,45.70
2019-01-20T03:30:09.589Z,43.77
2019-01-20T03:32:59.704Z,42.80
2019-01-20T03:35:50.179Z,43.17
2019-01-20T03:38:40.467Z,44.33
2019-01-20T03:41:31.970Z,38.87
2019-01-20T03:44:22.304Z,37.43
2019-01-20T03:47:12.213Z,38.63
2019-01-20T03:50:02.481Z,41.90
2019-01-20T03:52:52.441Z,39.63
2019-01-20T03:55:42.779Z,36.87
2019-01-20T03:58:32.844Z,37.53
2019-01-20T04:01:22.922Z,39.47
2019-01-20T04:04:12.931Z,37.70
2019-01-20T04:07:03.538Z,37.53
2019-01-20T04:09:53.965Z,37.47
2019-01-20T04:12:43.927Z,38.93
2019-01-20T04:15:34.050Z,41.43
2019-01-20T04:18:24.394Z,34.53
2019-01-20T04:21:14.614Z,33.50
2019-01-20T04:24:04.990Z,33.33
2019-01-20T04:26:55.078Z,39.43
2019-01-20T04:29:45.189Z,34.33
2019-01-20T04:32:35.658Z,35.83
2019-01-20T04:35:25.910Z,35.40
2019-01-20T04:38:16.060Z,33.27
2019-01-20T04:41:06.509Z,34.23
2019-01-20T04:43:56.742Z,36.27
2019-01-20T04:46:46.785Z,36.47
2019-01-20T04:49:36.965Z,38.93
2019-01-20T04:52:27.014Z,37.50
2019-01-20T04:55:17.737Z,36.70
2019-01-20T04:58:07.851Z,39.87
2019-01-20T05:00:58.041Z,41.33
2019-01-20T05:03:48.614Z,39.70
2019-01-20T05:06:39.534Z,45.40
2019-01-20T05:09:29.769Z,42.43
2019-01-20T05:12:20.107Z,46.07
2019-01-20T05:15:12.133Z,43.17
2019-01-20T05:18:02.210Z,43.47
2019-01-20T05:20:52.274Z,43.87
2019-01-20T05:23:42.577Z,43.70
2019-01-20T05:26:32.746Z,48.43
2019-01-20T05:29:23.566Z,42.27
2019-01-20T05:32:13.698Z,44.20
2019-01-20T05:35:04.226Z,40.27
2019-01-20T05:37:54.670Z,44.43
2019-01-20T05:40:44.984Z,36.23
2019-01-20T05:43:35.237Z,38.37
2019-01-20T05:46:25.414Z,39.87
2019-01-20T05:49:15.642Z,38.43
2019-01-20T05:52:05.759Z,38.83
2019-01-20T05:54:55.803Z,38.90
2019-01-20T05:57:46.182Z,39.17
2019-01-20T06:00:37.069Z,39.03
2019-01-20T06:03:27.477Z,38.50
2019-01-20T06:06:18.494Z,36.60
2019-01-20T06:09:09.051Z,40.03
2019-01-20T06:11:59.289Z,40.43
2019-01-20T06:14:49.547Z,44.27
2019-01-20T06:17:39.674Z,43.40
2019-01-20T06:20:29.666Z,39.33
2019-01-20T06:23:19.658Z,42.57
2019-01-20T06:26:09.909Z,41.67
2019-01-20T06:29:00.145Z,46.30
2019-01-20T06:31:50.574Z,46.00
2019-01-20T06:34:40.965Z,41.03
2019-01-20T06:37:31.270Z,40.60
2019-01-20T06:40:21.598Z,41.57
2019-01-20T06:43:11.940Z,42.37
2019-01-20T06:46:02.063Z,47.30
2019-01-20T06:48:52.249Z,42.13
2019-01-20T06:51:42.254Z,41.53
2019-01-20T06:54:33.181Z,36.17
2019-01-20T06:57:23.503Z,34.57
2019-01-20T07:00:19.166Z,40.97
2019-01-20T07:03:09.328Z,39.27
2019-01-20T07:05:59.638Z,40.77
2019-01-20T07:08:50.006Z,47.40
2019-01-20T07:11:40.275Z,41.97
2019-01-20T07:14:30.583Z,45.07
2019-01-20T07:17:20.886Z,44.17
2019-01-20T07:20:11.791Z,41.50
2019-01-20T07:23:02.139Z,41.00
2019-01-20T07:25:52.490Z,45.20
2019-01-20T07:28:42.742Z,44.63
2019-01-20T07:31:32.817Z,38.57
2019-01-20T07:34:23.005Z,37.77
2019-01-20T07:37:13.969Z,45.97
2019-01-20T07:40:05.698Z,43.07
2019-01-20T07:42:55.881Z,44.57
2019-01-20T07:45:46.046Z,43.70
2019-01-20T07:48:36.831Z,41.83
2019-01-20T07:51:27.097Z,42.50
2019-01-20T07:54:17.487Z,37.27
2019-01-20T07:57:07.794Z,46.73
2019-01-20T07:59:58.270Z,44.60
2019-01-20T08:02:49.070Z,43.43
2019-01-20T08:05:39.397Z,38.77
2019-01-20T08:08:30.346Z,45.23
2019-01-20T08:11:20.606Z,40.87
2019-01-20T08:14:10.882Z,44.07
2019-01-20T08:17:01.751Z,46.90
2019-01-20T08:19:52.334Z,40.87
2019-01-20T08:22:42.449Z,39.30
2019-01-20T08:25:32.781Z,48.20
2019-01-20T08:28:23.034Z,40.03
2019-01-20T08:31:13.307Z,44.90
2019-01-20T08:34:04.318Z,46.20
2019-01-20T08:36:54.414Z,45.90
2019-01-20T08:39:44.643Z,42.87
2019-01-20T08:42:34.810Z,42.13
2019-01-20T08:45:59.361Z,45.87
2019-01-20T08:48:49.488Z,44.87
2019-01-20T08:51:41.629Z,44.47
2019-01-20T08:54:32.074Z,43.73
2019-01-20T08:57:22.202Z,40.30
2019-01-20T09:00:17.499Z,40.03
2019-01-20T09:03:07.896Z,43.50
2019-01-20T09:05:58.030Z,38.93
2019-01-20T09:08:48.264Z,36.60
2019-01-20T09:11:38.271Z,34.03
2019-01-20T09:14:29.458Z,30.83
2019-01-20T09:17:19.499Z,27.03
2019-01-20T09:20:10.566Z,28.37
2019-01-20T09:23:00.630Z,33.40
2019-01-20T09:25:51.174Z,26.30
2019-01-20T09:28:41.346Z,27.47
2019-01-20T09:31:31.714Z,27.23
2019-01-20T09:34:22.121Z,25.13
2019-01-20T09:37:12.109Z,30.60
2019-01-20T09:40:02.738Z,30.63
2019-01-20T09:42:53.014Z,27.13
2019-01-20T09:45:44.022Z,27.03
2019-01-20T09:48:34.200Z,28.90
2019-01-20T09:51:24.458Z,28.53
2019-01-20T09:54:14.458Z,27.43
2019-01-20T09:57:04.786Z,30.67
2019-01-20T09:59:55.269Z,33.13
2019-01-20T10:02:45.685Z,28.93
2019-01-20T10:05:36.150Z,27.20
2019-01-20T10:08:26.459Z,26.00
2019-01-20T10:11:16.770Z,25.53
2019-01-20T10:14:07.038Z,30.07
2019-01-20T10:16:57.114Z,30.40
2019-01-20T10:19:47.306Z,28.03
2019-01-20T10:22:37.378Z,29.97
2019-01-20T10:25:27.479Z,29.47
2019-01-20T10:28:20.764Z,29.53
2019-01-20T10:31:11.127Z,29.57
2019-01-20T10:34:01.518Z,35.33
2019-01-20T10:36:52.545Z,35.03
2019-01-20T10:39:43.054Z,35.27
2019-01-20T10:42:33.334Z,35.67
2019-01-20T10:45:23.849Z,40.87
2019-01-20T10:48:14.154Z,44.27
2019-01-20T10:51:04.194Z,40.80
2019-01-20T10:53:54.118Z,38.90
2019-01-20T10:56:44.896Z,42.77
2019-01-20T10:59:35.250Z,45.23
2019-01-20T11:02:25.298Z,42.63
2019-01-20T11:05:16.489Z,39.93
2019-01-20T11:08:06.995Z,40.40
2019-01-20T11:10:57.347Z,41.70
2019-01-20T11:13:48.788Z,44.13
2019-01-20T11:16:39.015Z,46.23
2019-01-20T11:19:29.310Z,42.80
2019-01-20T11:22:20.550Z,46.67
2019-01-20T11:25:13.655Z,49.97
2019-01-20T11:28:03.978Z,43.20
2019-01-20T11:30:54.182Z,50.90
2019-01-20T11:33:44.533Z,47.67
2019-01-20T11:36:34.578Z,46.50
2019-01-20T11:39:24.674Z,52.13
2019-01-20T11:42:14.850Z,58.57
2019-01-20T11:45:08.130Z,57.17
2019-01-20T11:47:58.408Z,58.13
2019-01-20T11:50:48.598Z,53.17
2019-01-20T11:53:38.715Z,52.67
2019-01-20T11:56:28.735Z,50.00
2019-01-20T11:59:19.007Z,49.97
2019-01-20T12:02:09.470Z,44.47
2019-01-20T12:04:59.465Z,40.83
2019-01-20T12:07:49.698Z,44.23
2019-01-20T12:10:39.946Z,37.90
2019-01-20T12:13:30.666Z,40.90
2019-01-20T12:16:20.690Z,35.83
2019-01-20T12:19:10.609Z,36.97
2019-01-20T12:22:00.765Z,32.70
2019-01-20T12:24:50.998Z,39.10
2019-01-20T12:27:41.261Z,36.97
2019-01-20T12:30:33.604Z,43.90
2019-01-20T12:33:23.609Z,30.53
2019-01-20T12:36:13.938Z,35.77
2019-01-20T12:39:07.665Z,28.23
2019-01-20T12:41:57.781Z,26.53
2019-01-20T12:44:48.168Z,27.87
2019-01-20T12:47:38.411Z,24.57
2019-01-20T12:50:28.600Z,24.40
2019-01-20T12:53:18.776Z,24.10
2019-01-20T12:56:09.266Z,24.30
2019-01-20T12:58:59.966Z,23.40
2019-01-20T13:01:50.186Z,27.30
2019-01-20T13:04:40.386Z,26.90
2019-01-20T13:07:30.634Z,27.83
2019-01-20T13:10:21.268Z,25.60
2019-01-20T13:13:11.760Z,23.93
2019-01-20T13:16:03.184Z,24.43
2019-01-20T13:18:53.255Z,28.00
2019-01-20T13:21:43.753Z,30.20
2019-01-20T13:24:34.165Z,25.70
2019-01-20T13:27:24.310Z,24.00
2019-01-20T13:30:17.376Z,22.40
2019-01-20T13:33:07.393Z,26.57
2019-01-20T13:35:57.642Z,24.13
2019-01-20T13:38:47.794Z,26.30
2019-01-20T13:41:38.570Z,23.53
2019-01-20T13:44:29.255Z,23.13
2019-01-20T13:47:19.338Z,25.97
2019-01-20T13:50:12.198Z,26.13
2019-01-20T13:53:02.554Z,21.47
2019-01-20T13:55:52.529Z,25.23
2019-01-20T13:58:43.214Z,22.90
2019-01-20T14:01:33.606Z,19.13
2019-01-20T14:04:24.430Z,21.87
2019-01-20T14:07:14.699Z,20.30
2019-01-20T14:10:06.963Z,26.67
2019-01-20T14:12:57.305Z,20.23
2019-01-20T14:15:47.632Z,22.97
2019-01-20T14:18:37.507Z,21.97
2019-01-20T14:21:27.590Z,27.20
2019-01-20T14:24:17.659Z,26.23
2019-01-20T14:27:07.801Z,27.33
2019-01-20T14:29:58.102Z,32.43
2019-01-20T14:32:48.298Z,34.87
2019-01-20T14:35:38.332Z,36.67
2019-01-20T14:38:29.058Z,47.63
2019-01-20T14:41:19.055Z,41.67
2019-01-20T14:44:09.245Z,37.87
2019-01-20T14:46:59.578Z,37.37
2019-01-20T14:49:49.754Z,43.50
2019-01-20T14:52:40.050Z,37.40
2019-01-20T14:55:30.370Z,41.87
2019-01-20T14:58:20.714Z,37.47
2019-01-20T15:01:11.327Z,37.40
2019-01-20T15:04:01.750Z,37.03
2019-01-20T15:06:51.722Z,35.67
2019-01-20T15:09:41.631Z,34.70
2019-01-20T15:12:31.918Z,34.20
2019-01-20T15:15:28.603Z,33.83
2019-01-20T15:18:18.503Z,40.30
2019-01-20T15:21:08.744Z,36.60
2019-01-20T15:23:58.969Z,32.63
2019-01-20T15:26:49.279Z,27.23
2019-01-20T15:29:39.546Z,31.23
2019-01-20T15:32:29.830Z,29.27
2019-01-20T15:35:19.973Z,32.47
2019-01-20T15:38:10.445Z,33.50
2019-01-20T15:41:00.865Z,34.50
2019-01-20T15:43:50.838Z,34.70
2019-01-20T15:46:41.231Z,40.03
2019-01-20T15:49:31.885Z,50.23
2019-01-20T15:52:22.011Z,43.03
2019-01-20T15:55:12.473Z,47.47
2019-01-20T15:58:02.489Z,52.33
2019-01-20T16:00:52.832Z,56.17
2019-01-20T16:03:42.834Z,54.70
2019-01-20T16:06:33.047Z,56.20
2019-01-20T16:09:23.726Z,62.27
2019-01-20T16:12:14.330Z,64.23
2019-01-20T16:15:05.423Z,62.73
2019-01-20T16:17:57.051Z,59.43
2019-01-20T16:20:47.255Z,64.27
2019-01-20T16:23:37.255Z,61.03
2019-01-20T16:26:27.529Z,63.87
2019-01-20T16:29:18.511Z,62.50
2019-01-20T16:32:08.537Z,54.03
2019-01-20T16:34:58.782Z,63.40
2019-01-20T16:37:49.012Z,65.43
2019-01-20T16:40:39.897Z,64.23
2019-01-20T16:43:29.970Z,54.33
2019-01-20T16:46:20.042Z,61.00
2019-01-20T16:49:10.326Z,58.77
2019-01-20T16:52:00.522Z,62.87
2019-01-20T16:54:50.722Z,56.23
2019-01-20T16:57:42.225Z,53.20
2019-01-20T17:01:10.610Z,66.30
2019-01-20T17:04:40.534Z,66.37
2019-01-20T17:07:49.642Z,66.07
2019-01-20T17:11:00.569Z,56.73
2019-01-20T17:14:28.678Z,66.13
2019-01-20T17:18:02.493Z,61.30
2019-01-20T17:21:32.222Z,62.17
2019-01-20T17:25:19.717Z,53.77
2019-01-20T17:28:48.134Z,54.53
2019-01-20T17:32:16.388Z,59.00
2019-01-20T17:35:44.670Z,63.47
2019-01-20T17:39:14.122Z,57.03
2019-01-20T17:43:01.214Z,52.07
2019-01-20T17:46:11.462Z,59.07
2019-01-20T17:49:20.690Z,56.43
2019-01-20T17:52:48.848Z,51.87
2019-01-20T17:55:58.178Z,49.50
2019-01-20T17:58:50.642Z,53.77
2019-01-20T18:02:19.450Z,62.03
2019-01-20T18:05:47.635Z,56.87
2019-01-20T18:09:17.484Z,51.47
2019-01-20T18:12:26.538Z,57.13
2019-01-20T18:15:55.663Z,53.40
2019-01-20T18:18:45.670Z,54.20
2019-01-20T18:21:55.083Z,58.70
2019-01-20T18:25:23.762Z,67.63
2019-01-20T18:28:53.950Z,67.07
2019-01-20T18:32:06.107Z,71.00
2019-01-20T18:34:57.042Z,70.07
2019-01-20T18:38:44.315Z,64.87
2019-01-20T18:42:31.436Z,70.53
2019-01-20T18:45:41.703Z,58.83
2019-01-20T18:48:32.355Z,61.47
2019-01-20T18:52:02.037Z,61.57
2019-01-20T18:55:30.463Z,57.43
2019-01-20T18:58:39.559Z,51.90
2019-01-20T19:01:49.267Z,55.33
2019-01-20T19:04:59.381Z,61.90
2019-01-20T19:08:10.064Z,54.97
2019-01-20T19:11:36.606Z,60.03
2019-01-20T19:14:28.188Z,50.97
2019-01-20T19:17:18.523Z,62.03
2019-01-20T19:20:11.762Z,48.73
2019-01-20T19:23:02.066Z,49.73
2019-01-20T19:25:52.307Z,49.87
2019-01-20T19:28:42.613Z,46.60
2019-01-20T19:31:32.922Z,47.03
2019-01-20T19:34:23.135Z,42.73
2019-01-20T19:37:14.383Z,47.97
2019-01-20T19:40:07.206Z,46.60
2019-01-20T19:42:57.675Z,50.17
2019-01-20T19:45:48.139Z,43.97
2019-01-20T19:48:38.264Z,37.87
2019-01-20T19:51:28.569Z,40.43
2019-01-20T19:54:18.666Z,42.47
2019-01-20T19:57:08.610Z,48.03
2019-01-20T19:59:58.642Z,43.37
2019-01-20T20:02:48.985Z,38.07
2019-01-20T20:05:39.242Z,39.40
2019-01-20T20:08:29.611Z,39.73
2019-01-20T20:11:20.086Z,44.50
2019-01-20T20:14:10.530Z,49.67
2019-01-20T20:17:00.595Z,42.73
2019-01-20T20:19:50.597Z,39.80
2019-01-20T20:22:40.876Z,43.03
2019-01-20T20:25:31.186Z,37.37
2019-01-20T20:28:21.121Z,39.23
2019-01-20T20:31:11.422Z,44.47
2019-01-20T20:34:01.674Z,47.53
2019-01-20T20:36:52.014Z,52.40
2019-01-20T20:39:42.525Z,54.90
2019-01-20T20:42:32.986Z,48.53
2019-01-20T20:45:24.095Z,39.80
2019-01-20T20:48:13.949Z,40.97
2019-01-20T20:51:04.231Z,40.33
2019-01-20T20:53:54.603Z,43.40
2019-01-20T20:56:44.610Z,44.33
2019-01-20T20:59:35.075Z,44.93
2019-01-20T21:02:25.542Z,42.17
2019-01-20T21:05:17.050Z,40.20
2019-01-20T21:08:07.605Z,41.53
2019-01-20T21:10:57.798Z,37.30
2019-01-20T21:13:48.285Z,38.43
2019-01-20T21:16:38.733Z,34.97
2019-01-20T21:19:28.646Z,42.20
2019-01-20T21:22:18.923Z,42.73
2019-01-20T21:25:11.154Z,44.37
2019-01-20T21:28:01.206Z,41.73
2019-01-20T21:30:51.495Z,47.03
2019-01-20T21:33:41.426Z,42.67
2019-01-20T21:36:31.798Z,38.73
2019-01-20T21:39:22.209Z,40.80
2019-01-20T21:42:12.741Z,44.43
2019-01-20T21:45:03.426Z,40.47
2019-01-20T21:47:53.482Z,45.27
2019-01-20T21:50:43.837Z,41.70
2019-01-20T21:53:34.139Z,41.00
2019-01-20T21:56:24.565Z,40.80
2019-01-20T21:59:14.970Z,40.23
2019-01-20T22:02:05.339Z,38.27
2019-01-20T22:04:55.679Z,40.63
2019-01-20T22:07:46.442Z,40.20
2019-01-20T22:10:36.766Z,43.87
2019-01-20T22:13:26.876Z,38.53
2019-01-20T22:16:17.246Z,42.07
2019-01-20T22:19:07.511Z,39.67
2019-01-20T22:21:57.824Z,39.73
2019-01-20T22:24:48.081Z,51.57
2019-01-20T22:27:38.233Z,56.60
2019-01-20T22:30:28.726Z,41.17
2019-01-20T22:33:18.817Z,45.57
2019-01-20T22:36:09.091Z,44.47
2019-01-20T22:38:59.517Z,39.33
2019-01-20T22:41:50.252Z,42.77
2019-01-20T22:44:40.396Z,47.40
2019-01-20T22:47:30.393Z,43.97
2019-01-20T22:50:20.637Z,48.63
2019-01-20T22:53:11.054Z,37.47
2019-01-20T22:56:01.061Z,38.77
2019-01-20T22:58:51.322Z,39.07
2019-01-20T23:01:41.630Z,42.73
2019-01-20T23:04:32.025Z,43.80
2019-01-20T23:07:22.284Z,38.70
2019-01-20T23:10:12.409Z,37.70
2019-01-20T23:13:02.432Z,37.47
2019-01-20T23:15:52.455Z,39.17
2019-01-20T23:18:42.801Z,39.93
2019-01-20T23:21:33.594Z,34.80
2019-01-20T23:24:23.803Z,44.63
2019-01-20T23:27:14.159Z,40.47
2019-01-20T23:30:06.794Z,41.03
2019-01-20T23:32:57.029Z,40.20
2019-01-20T23:35:47.325Z,42.50
2019-01-20T23:38:37.306Z,42.83
2019-01-20T23:41:27.793Z,40.23
2019-01-20T23:44:18.316Z,41.33
2019-01-20T23:47:14.934Z,34.63
2019-01-20T23:49:59.982Z,34.23
2019-01-20T23:52:50.326Z,36.87
2019-01-20T23:55:40.325Z,34.83
2019-01-20T23:58:31.074Z,37.97
